Terminal Aerodrome Forecast
Issued by NWS Sioux Falls, SD

Home | Current Version | Previous Version | Graphics & Text | Print | Product List | Glossary Off
Versions: 1 2 3 4 5 6 7 8 9 10 11 12 13 14 15 16 17 18 19 20 21 22 23 24 25 26 27 28 29

000
FTUS43 KFSD 020534
TAFSUX
TAF
KSUX 020534Z 0206/0306 VRB03KT P6SM SCT200
     FM021500 13009KT P6SM BKN140
     FM021800 16013G19KT P6SM BKN090
     FM030100 15013KT 6SM BR OVC015=

USA.gov is the U.S. government's official web portal to all federal, state and local government web resources and services.